Time,TemperatureF,DewpointF,PressureIn,WindDirection,WindDirectionDegrees,WindSpeedMPH,WindSpeedGustMPH,Humidity,HourlyPrecipIn,Conditions,Clouds,dailyrainin,SoftwareType,DateUTC
2013-03-19 00:00:00,50.5,5.9,29.96,NW,315,0.0,2.0,16,0.00,,,0.00,Wunderground v.1.15,2013-03-19 06:00:00,
2013-03-19 00:10:00,49.7,6.6,29.96,NW,315,0.0,0.0,17,0.00,,,0.00,Wunderground v.1.15,2013-03-19 06:10:00,
2013-03-19 00:20:00,49.0,6.0,29.96,NW,316,0.0,0.0,17,0.00,,,0.00,Wunderground v.1.15,2013-03-19 06:20:00,
2013-03-19 00:30:00,48.2,7.8,29.96,NW,315,0.0,0.0,19,0.00,,,0.00,Wunderground v.1.15,2013-03-19 06:30:00,
2013-03-19 00:40:00,47.3,7.0,29.96,NW,315,0.0,0.0,19,0.00,,,0.00,Wunderground v.1.15,2013-03-19 06:40:00,
2013-03-19 00:50:00,47.0,7.9,29.97,NW,315,0.0,0.0,20,0.00,,,0.00,Wunderground v.1.15,2013-03-19 06:50:00,
2013-03-19 01:00:00,47.1,5.7,29.97,NW,315,0.0,0.0,18,0.00,,,0.00,Wunderground v.1.15,2013-03-19 07:00:00,
2013-03-19 01:10:00,47.7,6.2,29.98,NW,316,0.0,2.0,18,0.00,,,0.00,Wunderground v.1.15,2013-03-19 07:10:00,
2013-03-19 01:20:00,47.9,5.1,29.98,NW,315,0.0,2.0,17,0.00,,,0.00,Wunderground v.1.15,2013-03-19 07:20:00,
2013-03-19 01:30:00,47.5,6.0,29.98,NW,315,0.0,2.0,18,0.00,,,0.00,Wunderground v.1.15,2013-03-19 07:30:00,
2013-03-19 01:40:00,46.8,6.6,29.98,NW,316,0.0,2.0,19,0.00,,,0.00,Wunderground v.1.15,2013-03-19 07:40:00,
2013-03-19 01:50:00,46.2,8.3,29.98,NW,315,0.0,2.0,21,0.00,,,0.00,Wunderground v.1.15,2013-03-19 07:50:00,
2013-03-19 02:00:00,45.5,7.8,29.98,NW,315,0.0,2.0,21,0.00,,,0.00,Wunderground v.1.15,2013-03-19 08:00:00,
2013-03-19 02:10:00,44.9,7.3,29.97,NW,315,0.0,2.0,21,0.00,,,0.00,Wunderground v.1.15,2013-03-19 08:10:00,
2013-03-19 02:20:00,44.6,8.0,29.97,NW,315,0.0,2.0,22,0.00,,,0.00,Wunderground v.1.15,2013-03-19 08:20:00,
2013-03-19 02:30:00,44.4,8.9,29.97,NW,316,1.0,1.0,23,0.00,,,0.00,Wunderground v.1.15,2013-03-19 08:30:00,
2013-03-19 02:40:00,44.1,8.6,29.97,NW,315,0.0,2.0,23,0.00,,,0.00,Wunderground v.1.15,2013-03-19 08:40:00,
2013-03-19 02:50:00,43.8,8.3,29.97,NW,316,0.0,2.0,23,0.00,,,0.00,Wunderground v.1.15,2013-03-19 08:50:00,
2013-03-19 03:00:00,43.4,8.0,29.97,NW,315,0.0,2.0,23,0.00,,,0.00,Wunderground v.1.15,2013-03-19 09:00:00,
2013-03-19 03:10:00,43.3,8.9,29.97,NW,315,0.0,2.0,24,0.00,,,0.00,Wunderground v.1.15,2013-03-19 09:10:00,
2013-03-19 03:20:00,43.0,8.6,29.96,NW,315,0.0,2.0,24,0.00,,,0.00,Wunderground v.1.15,2013-03-19 09:20:00,
2013-03-19 03:30:00,42.9,8.5,29.95,NW,315,0.0,2.0,24,0.00,,,0.00,Wunderground v.1.15,2013-03-19 09:30:00,
2013-03-19 03:40:00,43.0,8.6,29.96,NW,315,0.0,2.0,24,0.00,,,0.00,Wunderground v.1.15,2013-03-19 09:40:00,
2013-03-19 03:50:00,43.1,9.6,29.96,NW,315,0.0,2.0,25,0.00,,,0.00,Wunderground v.1.15,2013-03-19 09:50:00,
2013-03-19 04:00:00,43.1,9.6,29.95,NW,315,0.0,2.0,25,0.00,,,0.00,Wunderground v.1.15,2013-03-19 10:00:00,
2013-03-19 04:10:00,43.2,9.7,29.95,NW,315,1.0,1.0,25,0.00,,,0.00,Wunderground v.1.15,2013-03-19 10:10:00,
2013-03-19 04:20:00,43.7,8.3,29.95,NW,315,1.0,1.0,23,0.00,,,0.00,Wunderground v.1.15,2013-03-19 10:20:00,
2013-03-19 04:30:00,43.7,8.3,29.95,NW,315,0.0,2.0,23,0.00,,,0.00,Wunderground v.1.15,2013-03-19 10:30:00,
2013-03-19 04:40:00,43.8,7.4,29.96,NW,315,1.0,1.0,22,0.00,,,0.00,Wunderground v.1.15,2013-03-19 10:40:00,
2013-03-19 04:50:00,44.1,6.6,29.96,NW,315,0.0,2.0,21,0.00,,,0.00,Wunderground v.1.15,2013-03-19 10:50:00,
2013-03-19 05:00:00,44.4,7.9,29.96,NW,315,1.0,1.0,22,0.00,,,0.00,Wunderground v.1.15,2013-03-19 11:00:00,
2013-03-19 05:10:00,43.8,7.4,29.95,NW,315,0.0,2.0,22,0.00,,,0.00,Wunderground v.1.15,2013-03-19 11:10:00,
2013-03-19 05:20:00,43.3,6.9,29.95,NW,315,0.0,2.0,22,0.00,,,0.00,Wunderground v.1.15,2013-03-19 11:20:00,
2013-03-19 05:30:00,43.0,6.7,29.95,NW,315,0.0,2.0,22,0.00,,,0.00,Wunderground v.1.15,2013-03-19 11:30:00,
2013-03-19 05:40:00,42.5,10.0,29.95,NW,315,0.0,2.0,26,0.00,,,0.00,Wunderground v.1.15,2013-03-19 11:40:00,
2013-03-19 05:50:00,42.3,8.9,29.95,NW,315,0.0,2.0,25,0.00,,,0.00,Wunderground v.1.15,2013-03-19 11:50:00,
2013-03-19 06:00:00,42.9,8.5,29.95,NW,315,0.0,2.0,24,0.00,,,0.00,Wunderground v.1.15,2013-03-19 12:00:00,
2013-03-19 06:10:00,43.1,7.7,29.96,NW,315,0.0,2.0,23,0.00,,,0.00,Wunderground v.1.15,2013-03-19 12:10:00,
2013-03-19 06:20:00,43.1,7.7,29.96,NW,315,0.0,2.0,23,0.00,,,0.00,Wunderground v.1.15,2013-03-19 12:20:00,
2013-03-19 06:30:00,43.0,7.7,29.96,NW,315,0.0,2.0,23,0.00,,,0.00,Wunderground v.1.15,2013-03-19 12:30:00,
2013-03-19 06:40:00,42.9,7.6,29.95,NW,315,0.0,2.0,23,0.00,,,0.00,Wunderground v.1.15,2013-03-19 12:40:00,
2013-03-19 06:50:00,42.7,9.3,29.96,NW,315,0.0,2.0,25,0.00,,,0.00,Wunderground v.1.15,2013-03-19 12:50:00,
2013-03-19 07:00:00,42.6,9.2,29.96,NW,315,0.0,2.0,25,0.00,,,0.00,Wunderground v.1.15,2013-03-19 13:00:00,
2013-03-19 07:10:00,42.8,7.5,29.96,NW,315,0.0,2.0,23,0.00,,,0.00,Wunderground v.1.15,2013-03-19 13:10:00,
2013-03-19 07:20:00,43.2,7.8,29.97,NW,315,0.0,2.0,23,0.00,,,0.00,Wunderground v.1.15,2013-03-19 13:20:00,
2013-03-19 07:30:00,43.1,7.7,29.97,NW,315,0.0,2.0,23,0.00,,,0.00,Wunderground v.1.15,2013-03-19 13:30:00,
2013-03-19 07:40:00,43.3,7.9,29.97,NW,315,0.0,2.0,23,0.00,,,0.00,Wunderground v.1.15,2013-03-19 13:40:00,
2013-03-19 07:50:00,43.3,7.9,29.97,NW,315,0.0,2.0,23,0.00,,,0.00,Wunderground v.1.15,2013-03-19 13:50:00,
2013-03-19 08:00:00,43.3,7.9,29.98,NW,315,0.0,2.0,23,0.00,,,0.00,Wunderground v.1.15,2013-03-19 14:00:00,
2013-03-19 08:10:00,43.5,9.0,29.99,NW,315,0.0,2.0,24,0.00,,,0.00,Wunderground v.1.15,2013-03-19 14:10:00,
2013-03-19 08:20:00,43.5,8.1,29.99,NW,315,1.0,1.0,23,0.00,,,0.00,Wunderground v.1.15,2013-03-19 14:20:00,
2013-03-19 08:30:00,43.6,8.2,29.98,NW,315,1.0,1.0,23,0.00,,,0.00,Wunderground v.1.15,2013-03-19 14:30:00,
2013-03-19 08:40:00,44.0,8.5,29.99,NW,315,1.0,2.0,23,0.00,,,0.00,Wunderground v.1.15,2013-03-19 14:40:00,
2013-03-19 08:50:00,44.3,7.8,30.00,NW,315,1.0,2.0,22,0.00,,,0.00,Wunderground v.1.15,2013-03-19 14:50:00,
2013-03-19 09:00:00,44.3,7.8,29.99,NW,316,3.0,3.0,22,0.00,,,0.00,Wunderground v.1.15,2013-03-19 15:00:00,
2013-03-19 09:10:00,44.7,9.1,30.00,NW,315,1.0,2.0,23,0.00,,,0.00,Wunderground v.1.15,2013-03-19 15:10:00,
2013-03-19 09:20:00,45.2,8.5,30.01,NW,315,2.0,2.0,22,0.00,,,0.00,Wunderground v.1.15,2013-03-19 15:20:00,
2013-03-19 09:30:00,45.8,9.0,30.01,NW,306,0.0,4.0,22,0.00,,,0.00,Wunderground v.1.15,2013-03-19 15:30:00,
2013-03-19 09:40:00,46.7,8.8,30.01,NW,313,2.0,2.0,21,0.00,,,0.00,Wunderground v.1.15,2013-03-19 15:40:00,
2013-03-19 09:50:00,47.3,9.3,30.01,NW,313,0.0,2.0,21,0.00,,,0.00,Wunderground v.1.15,2013-03-19 15:50:00,
2013-03-19 10:00:00,48.3,10.1,30.01,NW,313,1.0,1.0,21,0.00,,,0.00,Wunderground v.1.15,2013-03-19 16:00:00,
2013-03-19 10:10:00,48.7,9.4,30.00,NW,309,2.0,2.0,20,0.00,,,0.00,Wunderground v.1.15,2013-03-19 16:10:00,
2013-03-19 10:20:00,49.6,9.0,30.01,NW,309,0.0,2.0,19,0.00,,,0.00,Wunderground v.1.15,2013-03-19 16:20:00,
2013-03-19 10:30:00,49.8,10.3,30.01,NW,313,1.0,2.0,20,0.00,,,0.00,Wunderground v.1.15,2013-03-19 16:30:00,
2013-03-19 10:40:00,50.6,9.8,30.01,NW,323,2.0,4.0,19,0.00,,,0.00,Wunderground v.1.15,2013-03-19 16:40:00,
2013-03-19 10:50:00,51.3,10.4,30.01,NNW,336,1.0,2.0,19,0.00,,,0.00,Wunderground v.1.15,2013-03-19 16:50:00,
2013-03-19 11:00:00,51.7,9.5,30.01,NNW,336,1.0,1.0,18,0.00,,,0.00,Wunderground v.1.15,2013-03-19 17:00:00,
2013-03-19 11:10:00,52.3,8.7,30.02,NNW,336,1.0,1.0,17,0.00,,,0.00,Wunderground v.1.15,2013-03-19 17:10:00,
2013-03-19 11:20:00,52.9,9.2,30.02,NNW,336,0.0,2.0,17,0.00,,,0.00,Wunderground v.1.15,2013-03-19 17:20:00,
2013-03-19 11:30:00,53.2,8.1,30.02,NNW,336,1.0,2.0,16,0.00,,,0.00,Wunderground v.1.15,2013-03-19 17:30:00,
2013-03-19 11:40:00,53.3,8.2,30.02,NNW,336,0.0,2.0,16,0.00,,,0.00,Wunderground v.1.15,2013-03-19 17:40:00,
2013-03-19 11:50:00,54.3,7.5,30.02,NNW,336,0.0,2.0,15,0.00,,,0.00,Wunderground v.1.15,2013-03-19 17:50:00,
2013-03-19 12:00:00,54.6,7.8,30.02,NNW,336,0.0,2.0,15,0.00,,,0.00,Wunderground v.1.15,2013-03-19 18:00:00,
2013-03-19 12:10:00,55.0,8.1,30.02,NNW,336,0.0,2.0,15,0.00,,,0.00,Wunderground v.1.15,2013-03-19 18:10:00,
2013-03-19 12:20:00,55.3,6.8,30.02,NNW,336,0.0,2.0,14,0.00,,,0.00,Wunderground v.1.15,2013-03-19 18:20:00,
2013-03-19 12:30:00,55.7,7.1,30.02,NNW,336,0.0,2.0,14,0.00,,,0.00,Wunderground v.1.15,2013-03-19 18:30:00,
2013-03-19 12:40:00,57.2,8.3,30.01,NNW,336,0.0,2.0,14,0.00,,,0.00,Wunderground v.1.15,2013-03-19 18:40:00,
2013-03-19 12:50:00,57.7,10.3,30.01,NNW,336,1.0,1.0,15,0.00,,,0.00,Wunderground v.1.15,2013-03-19 18:50:00,
2013-03-19 13:00:00,58.6,11.0,30.00,NNW,336,0.0,2.0,15,0.00,,,0.00,Wunderground v.1.15,2013-03-19 19:00:00,
2013-03-19 13:10:00,59.4,13.1,30.00,NNW,336,0.0,2.0,16,0.00,,,0.00,Wunderground v.1.15,2013-03-19 19:10:00,
2013-03-19 13:20:00,59.4,15.8,30.00,West,281,2.0,2.0,18,0.00,,,0.00,Wunderground v.1.15,2013-03-19 19:20:00,
2013-03-19 13:30:00,59.8,17.4,30.00,West,267,2.0,2.0,19,0.00,,,0.00,Wunderground v.1.15,2013-03-19 19:30:00,
2013-03-19 13:40:00,60.4,17.9,30.00,West,279,1.0,2.0,19,0.00,,,0.00,Wunderground v.1.15,2013-03-19 19:40:00,
2013-03-19 13:50:00,60.9,15.7,29.99,NW,318,3.0,3.0,17,0.00,,,0.00,Wunderground v.1.15,2013-03-19 19:50:00,
2013-03-19 14:00:00,61.3,16.1,29.99,WNW,282,3.0,3.0,17,0.00,,,0.00,Wunderground v.1.15,2013-03-19 20:00:00,
2013-03-19 14:10:00,62.5,15.6,29.99,NW,306,2.0,5.0,16,0.00,,,0.00,Wunderground v.1.15,2013-03-19 20:10:00,
2013-03-19 14:20:00,62.5,14.2,29.99,NNW,333,4.0,5.0,15,0.00,,,0.00,Wunderground v.1.15,2013-03-19 20:20:00,
2013-03-19 14:30:00,62.6,12.7,29.99,NW,309,3.0,5.0,14,0.00,,,0.00,Wunderground v.1.15,2013-03-19 20:30:00,
2013-03-19 14:40:00,62.8,12.8,29.98,NW,308,3.0,3.0,14,0.00,,,0.00,Wunderground v.1.15,2013-03-19 20:40:00,
2013-03-19 14:50:00,63.0,11.3,29.98,WSW,246,7.0,14.0,13,0.00,,,0.00,Wunderground v.1.15,2013-03-19 20:50:00,
2013-03-19 15:00:00,63.3,11.5,29.98,North,360,6.0,7.0,13,0.00,,,0.00,Wunderground v.1.15,2013-03-19 21:00:00,
2013-03-19 15:10:00,63.1,11.4,29.98,NW,318,5.0,6.0,13,0.00,,,0.00,Wunderground v.1.15,2013-03-19 21:10:00,
2013-03-19 15:20:00,63.0,13.0,29.98,NW,325,7.0,10.0,14,0.00,,,0.00,Wunderground v.1.15,2013-03-19 21:20:00,
2013-03-19 15:30:00,62.3,12.4,29.98,NNW,342,8.0,8.0,14,0.00,,,0.00,Wunderground v.1.15,2013-03-19 21:30:00,
2013-03-19 15:40:00,62.5,12.6,29.98,NW,313,5.0,5.0,14,0.00,,,0.00,Wunderground v.1.15,2013-03-19 21:40:00,
2013-03-19 15:50:00,62.9,12.9,29.99,NW,308,5.0,10.0,14,0.00,,,0.00,Wunderground v.1.15,2013-03-19 21:50:00,
2013-03-19 16:00:00,62.6,12.7,29.99,NW,324,7.0,7.0,14,0.00,,,0.00,Wunderground v.1.15,2013-03-19 22:00:00,
2013-03-19 16:10:00,62.9,12.9,29.99,WNW,284,6.0,6.0,14,0.00,,,0.00,Wunderground v.1.15,2013-03-19 22:10:00,
2013-03-19 16:20:00,62.5,14.2,29.99,NW,314,7.0,7.0,15,0.00,,,0.00,Wunderground v.1.15,2013-03-19 22:20:00,
2013-03-19 16:30:00,62.2,12.3,29.99,West,269,6.0,6.0,14,0.00,,,0.00,Wunderground v.1.15,2013-03-19 22:30:00,
2013-03-19 16:40:00,62.2,12.3,30.00,NW,316,5.0,10.0,14,0.00,,,0.00,Wunderground v.1.15,2013-03-19 22:40:00,
2013-03-19 16:50:00,62.0,10.5,30.00,NNW,338,6.0,6.0,13,0.00,,,0.00,Wunderground v.1.15,2013-03-19 22:50:00,
2013-03-19 17:00:00,62.1,10.6,30.00,NNW,327,5.0,7.0,13,0.00,,,0.00,Wunderground v.1.15,2013-03-19 23:00:00,
2013-03-19 17:10:00,61.8,12.0,30.01,WNW,301,8.0,8.0,14,0.00,,,0.00,Wunderground v.1.15,2013-03-19 23:10:00,
2013-03-19 17:20:00,61.9,12.1,30.01,NW,322,4.0,9.0,14,0.00,,,0.00,Wunderground v.1.15,2013-03-19 23:20:00,
2013-03-19 17:30:00,61.8,12.0,30.02,NNW,334,7.0,7.0,14,0.00,,,0.00,Wunderground v.1.15,2013-03-19 23:30:00,
2013-03-19 17:40:00,61.7,11.9,30.02,NNW,327,6.0,6.0,14,0.00,,,0.00,Wunderground v.1.15,2013-03-19 23:40:00,
2013-03-19 17:50:00,61.2,13.1,30.03,NNW,335,7.0,7.0,15,0.00,,,0.00,Wunderground v.1.15,2013-03-19 23:50:00,
2013-03-19 18:00:00,61.6,13.4,30.03,NW,319,6.0,6.0,15,0.00,,,0.00,Wunderground v.1.15,2013-03-20 00:00:00,
2013-03-19 18:10:00,61.5,13.4,30.03,NW,323,9.0,10.0,15,0.00,,,0.00,Wunderground v.1.15,2013-03-20 00:10:00,
2013-03-19 18:20:00,61.0,14.4,30.03,NW,319,5.0,5.0,16,0.00,,,0.00,Wunderground v.1.15,2013-03-20 00:20:00,
2013-03-19 18:30:00,60.8,14.3,30.03,NW,317,6.0,6.0,16,0.00,,,0.00,Wunderground v.1.15,2013-03-20 00:30:00,
2013-03-19 18:40:00,60.4,13.9,30.04,NW,304,6.0,7.0,16,0.00,,,0.00,Wunderground v.1.15,2013-03-20 00:40:00,
2013-03-19 18:50:00,60.5,14.0,30.04,NW,319,4.0,4.0,16,0.00,,,0.00,Wunderground v.1.15,2013-03-20 00:50:00,
2013-03-19 19:00:00,60.3,15.2,30.04,NW,307,5.0,11.0,17,0.00,,,0.00,Wunderground v.1.15,2013-03-20 01:00:00,
2013-03-19 19:10:00,60.0,15.0,30.05,NNW,333,6.0,6.0,17,0.00,,,0.00,Wunderground v.1.15,2013-03-20 01:10:00,
2013-03-19 19:20:00,59.4,14.5,30.05,NW,319,5.0,6.0,17,0.00,,,0.00,Wunderground v.1.15,2013-03-20 01:20:00,
2013-03-19 19:30:00,59.0,15.5,30.06,NW,320,4.0,4.0,18,0.00,,,0.00,Wunderground v.1.15,2013-03-20 01:30:00,
2013-03-19 19:40:00,58.5,16.3,30.06,NW,318,4.0,4.0,19,0.00,,,0.00,Wunderground v.1.15,2013-03-20 01:40:00,
2013-03-19 19:50:00,58.2,16.1,30.07,NW,322,3.0,4.0,19,0.00,,,0.00,Wunderground v.1.15,2013-03-20 01:50:00,
2013-03-19 20:00:00,57.7,15.7,30.07,NW,318,3.0,3.0,19,0.00,,,0.00,Wunderground v.1.15,2013-03-20 02:00:00,
2013-03-19 20:10:00,57.3,16.5,30.08,NW,322,2.0,2.0,20,0.00,,,0.00,Wunderground v.1.15,2013-03-20 02:10:00,
2013-03-19 20:20:00,56.7,16.0,30.08,NW,321,2.0,2.0,20,0.00,,,0.00,Wunderground v.1.15,2013-03-20 02:20:00,
2013-03-19 20:30:00,56.2,16.7,30.09,NW,321,1.0,2.0,21,0.00,,,0.00,Wunderground v.1.15,2013-03-20 02:30:00,
2013-03-19 20:40:00,55.5,17.2,30.09,NW,321,1.0,1.0,22,0.00,,,0.00,Wunderground v.1.15,2013-03-20 02:40:00,
2013-03-19 20:50:00,55.1,16.9,30.10,NW,321,1.0,2.0,22,0.00,,,0.00,Wunderground v.1.15,2013-03-20 02:50:00,
2013-03-19 21:00:00,55.0,16.8,30.10,NW,321,1.0,2.0,22,0.00,,,0.00,Wunderground v.1.15,2013-03-20 03:00:00,
2013-03-19 21:10:00,54.4,17.3,30.11,NW,321,1.0,2.0,23,0.00,,,0.00,Wunderground v.1.15,2013-03-20 03:10:00,
2013-03-19 21:20:00,54.0,17.0,30.11,NW,321,1.0,2.0,23,0.00,,,0.00,Wunderground v.1.15,2013-03-20 03:20:00,
2013-03-19 21:30:00,53.6,17.6,30.12,NW,321,1.0,1.0,24,0.00,,,0.00,Wunderground v.1.15,2013-03-20 03:30:00,
2013-03-19 21:40:00,53.2,17.3,30.13,NW,321,0.0,2.0,24,0.00,,,0.00,Wunderground v.1.15,2013-03-20 03:40:00,
2013-03-19 21:50:00,53.0,17.1,30.13,NW,321,1.0,2.0,24,0.00,,,0.00,Wunderground v.1.15,2013-03-20 03:50:00,
2013-03-19 22:00:00,52.8,17.9,30.13,NW,321,1.0,2.0,25,0.00,,,0.00,Wunderground v.1.15,2013-03-20 04:00:00,
2013-03-19 22:10:00,52.5,17.6,30.14,NW,321,1.0,1.0,25,0.00,,,0.00,Wunderground v.1.15,2013-03-20 04:10:00,
2013-03-19 22:20:00,52.2,17.4,30.14,NW,321,0.0,2.0,25,0.00,,,0.00,Wunderground v.1.15,2013-03-20 04:20:00,
2013-03-19 22:30:00,51.8,18.0,30.15,NW,321,0.0,2.0,26,0.00,,,0.00,Wunderground v.1.15,2013-03-20 04:30:00,
2013-03-19 22:40:00,51.2,18.3,30.15,NW,321,0.0,2.0,27,0.00,,,0.00,Wunderground v.1.15,2013-03-20 04:40:00,
2013-03-19 22:50:00,51.0,18.1,30.15,NW,321,0.0,2.0,27,0.00,,,0.00,Wunderground v.1.15,2013-03-20 04:50:00,
2013-03-19 23:00:00,50.4,17.6,30.16,NW,321,0.0,2.0,27,0.00,,,0.00,Wunderground v.1.15,2013-03-20 05:00:00,
2013-03-19 23:10:00,49.0,18.1,30.16,NW,321,0.0,2.0,29,0.00,,,0.00,Wunderground v.1.15,2013-03-20 05:10:00,
2013-03-19 23:20:00,48.8,17.9,30.16,NW,321,0.0,2.0,29,0.00,,,0.00,Wunderground v.1.15,2013-03-20 05:20:00,
2013-03-19 23:30:00,48.0,18.0,30.17,NW,321,0.0,2.0,30,0.00,,,0.00,Wunderground v.1.15,2013-03-20 05:30:00,
2013-03-19 23:40:00,47.0,18.6,30.17,NW,321,0.0,2.0,32,0.00,,,0.00,Wunderground v.1.15,2013-03-20 05:40:00,
2013-03-19 23:50:00,46.1,17.8,30.17,NW,321,0.0,2.0,32,0.00,,,0.00,Wunderground v.1.15,2013-03-20 05:50:00,